Time;durP1;ratioP1;P1;durP2;ratioP2;P2;SDS_P1;SDS_P2;PMS_P1;PMS_P2;Temp;Humidity;BMP_temperature;BMP_pressure;BME280_temperature;BME280_humidity;BME280_pressure;Samples;Min_cycle;Max_cycle;Signal;HPM_P1;HPM_P2
2022/09/28 00:01:19;;;;;;;32.80;23.02;;;;;;;11.58;94.19;93032.08;1676379;85;21002;-60
2022/09/28 00:03:48;;;;;;;41.77;25.68;;;;;;;11.54;94.05;93036.41;1676401;85;21050;-62
2022/09/28 00:06:20;;;;;;;35.78;24.50;;;;;;;11.49;93.92;93038.52;1676301;85;20982;-60
2022/09/28 00:08:51;;;;;;;33.58;22.70;;;;;;;11.44;94.05;93034.36;1675823;85;21284;-61
2022/09/28 00:11:20;;;;;;;30.57;21.77;;;;;;;11.43;94.92;93030.86;1676202;85;21584;-61
2022/09/28 00:13:55;;;;;;;34.35;21.35;;;;;;;11.48;95.28;93019.11;1647461;87;21589;-60
2022/09/28 00:16:26;;;;;;;28.45;20.70;;;;;;;11.52;95.19;93014.76;1675762;85;21115;-61
2022/09/28 00:18:54;;;;;;;26.80;19.12;;;;;;;11.55;95.09;93011.75;1675301;84;21033;-59
2022/09/28 00:21:23;;;;;;;26.05;19.00;;;;;;;11.60;95.47;93000.05;1663860;86;21109;-60
2022/09/28 00:24:11;;;;;;;32.10;21.57;;;;;;;11.69;95.40;92997.06;1676233;84;21443;-60
2022/09/28 00:26:44;;;;;;;28.67;19.48;;;;;;;11.71;94.90;92984.92;1675908;85;20980;-60
2022/09/28 00:29:22;;;;;;;30.77;19.57;;;;;;;11.72;94.65;92981.55;1676963;85;21107;-59
2022/09/28 00:32:02;;;;;;;26.90;20.37;;;;;;;11.70;94.23;92984.06;1676183;85;20990;-60
2022/09/28 00:34:33;;;;;;;28.32;18.70;;;;;;;11.67;93.99;92984.41;1663774;86;21271;-59
2022/09/28 00:37:02;;;;;;;31.77;20.88;;;;;;;11.69;94.13;92983.93;1647269;87;21006;-59
2022/09/28 00:39:34;;;;;;;33.42;21.12;;;;;;;11.67;93.72;92983.65;1675757;85;21452;-59
2022/09/28 00:42:02;;;;;;;24.60;17.15;;;;;;;11.64;94.00;92980.52;1676657;85;21049;-60
2022/09/28 00:44:43;;;;;;;22.13;15.88;;;;;;;11.65;93.94;92984.16;1663608;86;21088;-60
2022/09/28 00:47:50;;;;;;;24.27;17.42;;;;;;;11.62;93.66;92987.91;1647491;87;21227;-59
2022/09/28 00:50:29;;;;;;;30.88;18.15;;;;;;;11.53;94.01;92989.46;1647581;87;21486;-60
2022/09/28 00:53:13;;;;;;;30.75;19.05;;;;;;;11.51;94.30;93000.86;1675147;85;21023;-59
2022/09/28 00:55:59;;;;;;;27.55;18.25;;;;;;;11.46;94.58;92987.20;1676209;85;21039;-61
2022/09/28 00:58:29;;;;;;;26.07;17.73;;;;;;;11.48;94.70;92992.19;1668472;85;21483;-61
2022/09/28 01:00:58;;;;;;;25.72;18.60;;;;;;;11.49;94.92;92989.59;1644624;87;21145;-60
2022/09/28 01:03:26;;;;;;;26.00;16.10;;;;;;;11.50;94.83;92981.45;1662082;86;21027;-59
2022/09/28 01:05:57;;;;;;;22.98;17.15;;;;;;;11.47;94.82;92978.30;1662274;86;21040;-61
2022/09/28 01:08:26;;;;;;;25.77;17.17;;;;;;;11.42;95.24;92984.54;1662294;86;21036;-60
2022/09/28 01:10:54;;;;;;;21.40;16.20;;;;;;;11.39;95.39;92986.27;1662403;86;21036;-61
2022/09/28 01:13:22;;;;;;;20.05;15.78;;;;;;;11.39;95.40;92980.77;1662453;86;21955;-59
2022/09/28 01:16:01;;;;;;;27.32;17.65;;;;;;;11.42;95.39;92977.05;1662452;86;21468;-60
2022/09/28 01:18:43;;;;;;;24.20;15.30;;;;;;;11.43;95.29;92972.28;1661972;86;21019;-59
2022/09/28 01:21:21;;;;;;;22.20;15.33;;;;;;;11.41;95.19;92974.78;1662734;86;21152;-61
2022/09/28 01:24:13;;;;;;;20.23;14.63;;;;;;;11.38;95.41;92977.15;1662472;86;20987;-61
2022/09/28 01:26:57;;;;;;;28.20;16.52;;;;;;;11.34;95.30;92971.87;1662146;86;21174;-60
2022/09/28 01:29:39;;;;;;;20.27;14.70;;;;;;;11.30;95.48;92979.62;1662267;86;21036;-60
2022/09/28 01:32:27;;;;;;;21.55;13.55;;;;;;;11.31;96.01;92984.52;1662052;86;21028;-60
2022/09/28 01:35:07;;;;;;;21.20;13.88;;;;;;;11.32;95.98;92981.25;1611019;86;21088;-60
2022/09/28 01:37:45;;;;;;;15.93;12.90;;;;;;;11.32;96.05;92975.00;1662211;86;21003;-61
2022/09/28 01:40:13;;;;;;;17.50;12.58;;;;;;;11.34;96.16;92980.13;1639117;86;21089;-61
2022/09/28 01:42:43;;;;;;;20.08;13.50;;;;;;;11.36;96.10;92974.14;1662225;86;21072;-59
2022/09/28 01:45:19;;;;;;;18.90;14.18;;;;;;;11.32;96.01;92981.25;1662475;85;21468;-59
2022/09/28 01:47:46;;;;;;;18.00;13.18;;;;;;;11.32;96.29;92978.50;1662016;86;20997;-60
2022/09/28 01:50:17;;;;;;;14.40;11.53;;;;;;;11.38;96.64;92962.01;1662235;86;21079;-60
2022/09/28 01:53:02;;;;;;;16.27;11.12;;;;;;;11.45;96.78;92949.13;1638784;86;21801;-59
2022/09/28 01:55:39;;;;;;;19.05;12.85;;;;;;;11.49;96.40;92953.16;1662390;85;20976;-58
2022/09/28 01:58:31;;;;;;;17.80;12.23;;;;;;;11.48;96.44;92942.02;1662077;85;21059;-61
2022/09/28 02:01:13;;;;;;;16.12;10.82;;;;;;;11.51;96.51;92938.27;1662264;85;21058;-60
2022/09/28 02:03:47;;;;;;;18.35;12.95;;;;;;;11.50;95.85;92934.01;1637415;86;21022;-61
2022/09/28 02:06:25;;;;;;;23.30;14.98;;;;;;;11.52;96.12;92928.76;1644848;87;21271;-62
2022/09/28 02:08:56;;;;;;;18.48;12.88;;;;;;;11.60;96.35;92949.10;1662280;86;21512;-60
2022/09/28 02:11:26;;;;;;;18.55;12.78;;;;;;;11.64;95.67;92954.35;1662156;86;21015;-60
2022/09/28 02:14:01;;;;;;;18.30;12.28;;;;;;;11.58;95.50;92951.61;1639541;86;21547;-59
2022/09/28 02:16:44;;;;;;;20.62;10.90;;;;;;;11.54;95.38;92955.17;1662238;86;21451;-58
2022/09/28 02:19:17;;;;;;;13.05;10.20;;;;;;;11.51;95.38;92954.79;1645062;87;21088;-60
2022/09/28 02:22:22;;;;;;;11.70;10.03;;;;;;;11.44;95.51;92955.28;1662531;85;21028;-60
2022/09/28 02:25:12;;;;;;;17.90;11.30;;;;;;;11.38;95.79;92959.98;1662304;86;21028;-59
2022/09/28 02:27:51;;;;;;;12.70;10.90;;;;;;;11.33;96.10;92957.98;1662676;86;20996;-59
2022/09/28 02:30:19;;;;;;;14.68;12.03;;;;;;;11.30;96.37;92956.22;1657898;86;21027;-60
2022/09/28 02:32:49;;;;;;;16.82;12.70;;;;;;;11.34;97.23;92952.60;1662431;86;21147;-61
2022/09/28 02:35:18;;;;;;;21.05;11.80;;;;;;;11.41;96.87;92964.53;1671593;85;21027;-61
2022/09/28 02:37:45;;;;;;;16.80;13.32;;;;;;;11.42;96.62;92949.52;1672956;84;21069;-60
2022/09/28 02:40:19;;;;;;;17.57;12.43;;;;;;;11.44;96.92;92949.77;1673544;85;21574;-61
2022/09/28 02:43:10;;;;;;;19.05;12.90;;;;;;;11.47;96.85;92955.66;1641372;86;21463;-60
2022/09/28 02:46:26;;;;;;;15.95;11.80;;;;;;;11.46;96.39;92954.16;1654721;86;21170;-60
2022/09/28 02:49:37;;;;;;;19.30;13.05;;;;;;;11.39;96.50;92958.74;1589154;90;21153;-60
2022/09/28 02:52:35;;;;;;;18.25;12.40;;;;;;;11.32;96.50;92957.84;1590001;90;21148;-60
2022/09/28 02:55:38;;;;;;;16.93;12.78;;;;;;;11.30;96.79;92945.20;1636085;86;21020;-60
2022/09/28 02:58:35;;;;;;;19.17;13.60;;;;;;;11.27;97.14;92942.08;1704040;83;21103;-59
2022/09/28 03:01:26;;;;;;;23.35;12.23;;;;;;;11.28;97.16;92943.58;1707641;82;21253;-61
2022/09/28 03:04:27;;;;;;;18.62;12.50;;;;;;;11.25;97.08;92939.67;1707718;84;21004;-60
2022/09/28 03:07:07;;;;;;;17.42;13.05;;;;;;;11.28;97.70;92947.70;1676271;85;20997;-60
2022/09/28 03:09:44;;;;;;;15.68;12.00;;;;;;;11.37;97.88;92944.72;1647556;87;21521;-60
2022/09/28 03:12:13;;;;;;;16.77;11.88;;;;;;;11.43;97.60;92949.64;1676306;85;21088;-60
2022/09/28 03:14:42;;;;;;;17.05;11.75;;;;;;;11.46;97.31;92939.01;1663714;86;21279;-61
2022/09/28 03:17:10;;;;;;;22.82;11.22;;;;;;;11.46;97.03;92941.77;1676693;85;21132;-61
2022/09/28 03:19:39;;;;;;;17.23;10.10;;;;;;;11.48;97.05;92941.25;1673628;85;20984;-60
2022/09/28 03:22:07;;;;;;;11.68;9.13;;;;;;;11.45;96.63;92943.02;1673406;85;20996;-60
2022/09/28 03:24:35;;;;;;;10.98;8.80;;;;;;;11.41;96.42;92936.23;1658196;85;21083;-60
2022/09/28 03:27:03;;;;;;;9.50;8.10;;;;;;;11.33;96.45;92937.97;1673935;85;21100;-61
2022/09/28 03:29:33;;;;;;;9.78;6.85;;;;;;;11.29;96.65;92934.07;1673259;84;21091;-61
2022/09/28 03:32:03;;;;;;;8.50;6.92;;;;;;;11.29;96.59;92933.30;1673523;85;21075;-61
2022/09/28 03:34:30;;;;;;;11.93;7.80;;;;;;;11.26;96.67;92930.17;1673301;85;21512;-61
2022/09/28 03:36:58;;;;;;;20.30;11.70;;;;;;;11.28;97.19;92925.69;1673361;85;21070;-61
2022/09/28 03:39:26;;;;;;;21.55;13.30;;;;;;;11.32;97.45;92931.70;1673388;85;21122;-61
2022/09/28 03:41:53;;;;;;;21.20;13.95;;;;;;;11.39;97.57;92926.34;1673442;84;21028;-59
2022/09/28 03:44:21;;;;;;;18.55;13.10;;;;;;;11.44;96.96;92940.74;1673859;85;21000;-60
2022/09/28 03:46:50;;;;;;;19.57;13.13;;;;;;;11.47;96.77;92941.89;1673055;85;20964;-61
2022/09/28 03:49:19;;;;;;;17.35;12.53;;;;;;;11.43;96.29;92933.13;1658440;85;20968;-61
2022/09/28 03:51:48;;;;;;;24.23;15.20;;;;;;;11.35;95.89;92938.96;1673501;84;21237;-60
2022/09/28 03:54:17;;;;;;;16.60;12.18;;;;;;;11.27;96.16;92933.81;1673287;85;21579;-58
2022/09/28 03:56:46;;;;;;;20.02;10.90;;;;;;;11.24;96.10;92925.17;1673361;85;21031;-61
2022/09/28 03:59:14;;;;;;;11.83;10.63;;;;;;;11.19;96.12;92921.76;1673206;85;21523;-61
2022/09/28 04:01:42;;;;;;;21.23;12.78;;;;;;;11.18;96.52;92938.78;1673619;85;21075;-61
2022/09/28 04:04:13;;;;;;;22.27;13.48;;;;;;;11.13;96.23;92928.52;1673365;85;21254;-62
2022/09/28 04:06:40;;;;;;;18.20;13.18;;;;;;;11.11;97.16;92935.87;1673561;85;20960;-61
2022/09/28 04:09:08;;;;;;;16.20;12.80;;;;;;;11.12;97.17;92929.13;1673521;85;21455;-59
2022/09/28 04:11:36;;;;;;;22.13;14.00;;;;;;;11.11;96.71;92933.13;1673377;85;21028;-60
2022/09/28 04:14:04;;;;;;;26.12;15.55;;;;;;;11.08;96.59;92929.98;1673567;85;21046;-61
2022/09/28 04:16:35;;;;;;;18.98;15.28;;;;;;;11.10;96.96;92931.62;1657888;85;21276;-61
2022/09/28 04:19:10;;;;;;;21.77;16.57;;;;;;;11.14;97.34;92933.50;1658778;85;20976;-61
2022/09/28 04:21:43;;;;;;;25.43;18.67;;;;;;;11.18;97.14;92948.41;1633589;85;21579;-60
2022/09/28 04:24:13;;;;;;;25.12;20.08;;;;;;;11.19;96.82;92944.41;1673724;85;21042;-61
2022/09/28 04:26:41;;;;;;;30.60;20.62;;;;;;;11.20;97.10;92949.41;1673544;85;21049;-61
2022/09/28 04:29:17;;;;;;;28.02;19.65;;;;;;;11.22;96.92;92941.44;1673379;85;21759;-60
2022/09/28 04:31:48;;;;;;;31.97;20.90;;;;;;;11.22;97.10;92943.42;1679739;85;21491;-59
2022/09/28 04:34:21;;;;;;;41.50;17.45;;;;;;;11.26;97.56;92948.83;1673408;85;21071;-60
2022/09/28 04:36:50;;;;;;;20.65;15.40;;;;;;;11.28;97.00;92951.83;1673957;85;21432;-60
2022/09/28 04:39:18;;;;;;;22.32;14.95;;;;;;;11.24;96.72;92944.45;1673586;85;21445;-59
2022/09/28 04:41:50;;;;;;;23.12;15.40;;;;;;;11.24;96.96;92958.81;1673617;84;21161;-60
2022/09/28 04:44:18;;;;;;;16.73;14.87;;;;;;;11.24;96.96;92958.20;1673219;85;21045;-58
2022/09/28 04:46:47;;;;;;;20.77;14.68;;;;;;;11.26;97.63;92948.06;1673566;85;21047;-60
2022/09/28 04:49:17;;;;;;;19.20;14.60;;;;;;;11.31;97.46;92956.98;1668704;85;21063;-61
2022/09/28 04:51:51;;;;;;;18.95;14.35;;;;;;;11.37;97.50;92950.87;1679628;85;21004;-60
2022/09/28 04:54:19;;;;;;;16.82;12.90;;;;;;;11.43;97.60;92946.13;1673328;84;21232;-62
2022/09/28 04:56:47;;;;;;;13.65;12.15;;;;;;;11.53;97.78;92956.42;1673575;85;20972;-62
2022/09/28 04:59:15;;;;;;;16.12;11.35;;;;;;;11.56;97.50;92956.83;1673515;85;21228;-62
2022/09/28 05:01:44;;;;;;;19.35;11.93;;;;;;;11.62;96.94;92952.11;1673977;85;21056;-62
2022/09/28 05:04:30;;;;;;;18.05;15.08;;;;;;;11.61;96.28;92954.73;1674423;85;20975;-61
2022/09/28 05:07:00;;;;;;;23.32;18.30;;;;;;;11.60;96.14;92949.72;1645866;85;21274;-61
2022/09/28 05:09:29;;;;;;;23.50;17.48;;;;;;;11.56;96.10;92954.08;1673995;85;20993;-60
2022/09/28 05:11:57;;;;;;;22.55;17.05;;;;;;;11.49;96.02;92966.19;1673960;85;21054;-59
2022/09/28 05:14:27;;;;;;;19.20;14.23;;;;;;;11.45;96.30;92959.53;1674145;85;20992;-60
2022/09/28 05:16:56;;;;;;;28.80;20.40;;;;;;;11.42;96.72;92955.02;1674042;84;21035;-62
2022/09/28 05:19:29;;;;;;;33.65;23.95;;;;;;;11.45;96.79;92958.77;1674116;85;21271;-62
2022/09/28 05:22:10;;;;;;;32.93;21.73;;;;;;;11.40;96.76;92954.77;1673981;85;21016;-64
2022/09/28 05:24:33;;;;;;;28.25;19.73;;;;;;;11.39;97.37;92953.23;1673732;85;21023;-62
2022/09/28 05:27:01;;;;;;;38.75;31.05;;;;;;;11.45;97.73;92954.64;1674044;84;21040;-62
2022/09/28 05:29:30;;;;;;;22.55;17.57;;;;;;;11.49;97.33;92946.91;1661139;84;21104;-60
2022/09/28 05:32:00;;;;;;;21.00;16.73;;;;;;;11.48;97.33;92957.77;1669202;85;21248;-62
2022/09/28 05:34:35;;;;;;;91.53;56.10;;;;;;;11.43;97.35;92964.78;1646011;85;21557;-60
2022/09/28 05:37:03;;;;;;;26.25;19.85;;;;;;;11.38;97.90;92964.12;1658995;85;21076;-63
2022/09/28 05:39:32;;;;;;;29.48;16.97;;;;;;;11.39;98.06;92953.23;1632132;85;21094;-63
2022/09/28 05:41:59;;;;;;;25.32;15.93;;;;;;;11.39;98.16;92953.23;1661043;85;21058;-63
2022/09/28 05:44:27;;;;;;;29.27;19.52;;;;;;;11.42;98.75;92954.26;1666764;85;21252;-61
2022/09/28 05:46:55;;;;;;;33.00;24.45;;;;;;;11.48;98.61;92957.16;1669855;85;21014;-61
2022/09/28 05:49:23;;;;;;;23.27;15.30;;;;;;;11.47;98.31;92950.15;1665367;85;21605;-62
2022/09/28 05:51:50;;;;;;;18.73;15.18;;;;;;;11.44;98.42;92944.88;1680626;85;21077;-62
2022/09/28 05:54:19;;;;;;;16.30;14.28;;;;;;;11.40;98.53;92954.77;1649298;85;21113;-66
2022/09/28 05:56:48;;;;;;;23.12;18.48;;;;;;;11.41;98.99;92949.39;1627637;86;21249;-61
2022/09/28 05:59:16;;;;;;;20.72;14.65;;;;;;;11.42;99.14;92948.14;1659711;85;21047;-62
2022/09/28 06:01:44;;;;;;;35.65;17.62;;;;;;;11.47;99.84;92944.64;1652846;85;21157;-63
2022/09/28 06:04:14;;;;;;;16.15;12.18;;;;;;;11.58;100.00;92943.34;1652690;85;21698;-64
2022/09/28 06:06:42;;;;;;;10.58;7.95;;;;;;;11.72;100.00;92936.11;1649051;85;21044;-63
2022/09/28 06:09:10;;;;;;;15.15;10.10;;;;;;;11.85;99.51;92946.00;1651600;85;21378;-61
2022/09/28 06:11:38;;;;;;;17.17;10.40;;;;;;;12.06;98.61;92939.05;1631977;85;21074;-62
2022/09/28 06:14:08;;;;;;;15.13;12.13;;;;;;;12.19;98.21;92944.19;1652655;85;21035;-62
2022/09/28 06:16:37;;;;;;;17.55;10.48;;;;;;;12.27;97.84;92943.06;1654280;84;21120;-63
2022/09/28 06:19:08;;;;;;;18.37;10.82;;;;;;;12.37;97.59;92932.66;1654531;85;21536;-61
2022/09/28 06:21:46;;;;;;;17.25;10.90;;;;;;;12.46;97.70;92939.28;1626918;85;21317;-60
2022/09/28 06:24:14;;;;;;;16.62;12.15;;;;;;;12.57;97.66;92937.91;1658554;85;20994;-60
2022/09/28 06:26:42;;;;;;;19.70;13.90;;;;;;;12.71;97.27;92945.17;1626648;87;21095;-59
2022/09/28 06:29:17;;;;;;;18.75;11.33;;;;;;;12.86;96.96;92940.87;1627777;87;22039;-61
2022/09/28 06:31:41;;;;;;;14.55;9.75;;;;;;;13.04;96.01;92945.88;1641964;85;21052;-63
2022/09/28 06:34:11;;;;;;;16.60;11.00;;;;;;;13.18;94.99;92952.36;1656911;84;21634;-60
2022/09/28 06:36:40;;;;;;;12.65;10.53;;;;;;;13.29;94.52;92958.59;1615311;87;21102;-61
2022/09/28 06:39:12;;;;;;;15.85;10.78;;;;;;;13.40;94.22;92965.47;1632339;86;22399;-63
2022/09/28 06:41:42;;;;;;;40.53;29.67;;;;;;;13.47;93.05;92969.08;1645594;85;21391;-60
2022/09/28 06:44:15;;;;;;;31.23;22.20;;;;;;;13.54;92.88;92974.09;1642644;85;21034;-60
2022/09/28 06:47:00;;;;;;;69.35;42.62;;;;;;;13.59;92.77;92975.33;1643482;85;21257;-62
2022/09/28 06:49:54;;;;;;;40.70;24.20;;;;;;;13.70;92.26;92984.94;1641356;85;21505;-61
2022/09/28 06:52:21;;;;;;;33.60;19.45;;;;;;;13.78;91.90;92984.54;1651841;85;21050;-60
2022/09/28 06:54:51;;;;;;;29.37;14.45;;;;;;;13.85;90.72;92983.99;1652984;84;21156;-64
2022/09/28 06:57:25;;;;;;;18.10;10.98;;;;;;;13.93;88.97;92990.47;1654681;85;21947;-67
2022/09/28 06:59:53;;;;;;;15.00;10.50;;;;;;;14.06;87.58;92996.19;1622958;86;21155;-65
2022/09/28 07:02:23;;;;;;;24.07;13.75;;;;;;;14.17;86.96;93009.35;1653842;85;21048;-62
2022/09/28 07:05:11;;;;;;;19.12;7.75;;;;;;;14.27;86.13;93016.70;1658849;84;22313;-65
2022/09/28 07:07:43;;;;;;;14.00;8.13;;;;;;;14.34;84.90;93018.95;1666407;84;21062;-60
2022/09/28 07:10:18;;;;;;;16.73;7.47;;;;;;;14.43;84.64;93022.77;1674155;83;21022;-65
2022/09/28 07:13:06;;;;;;;33.30;10.80;;;;;;;14.53;83.81;93021.33;1635155;86;21378;-62
2022/09/28 07:15:37;;;;;;;40.73;13.80;;;;;;;14.67;82.63;93033.30;1637435;85;22118;-65
2022/09/28 07:18:05;;;;;;;34.35;13.10;;;;;;;14.75;82.04;93036.38;1616613;87;21133;-61
2022/09/28 07:20:34;;;;;;;20.20;11.03;;;;;;;14.88;81.20;93041.31;1639379;85;21549;-60
2022/09/28 07:23:03;;;;;;;5.28;4.55;;;;;;;14.98;79.46;93044.63;1596034;85;22307;-63
2022/09/28 07:25:34;;;;;;;11.50;7.08;;;;;;;15.02;77.08;93050.63;1643015;85;21265;-61
2022/09/28 07:28:04;;;;;;;6.58;4.62;;;;;;;15.05;76.34;93051.01;1620697;85;21091;-59
2022/09/28 07:30:34;;;;;;;14.87;6.75;;;;;;;15.09;74.50;93041.77;1635410;85;21593;-62
2022/09/28 07:33:16;;;;;;;23.62;10.35;;;;;;;15.11;71.71;93042.63;1617644;85;21030;-60
2022/09/28 07:35:54;;;;;;;22.32;8.18;;;;;;;15.27;67.72;93043.88;1655408;85;22148;-62
2022/09/28 07:38:24;;;;;;;15.98;7.53;;;;;;;15.50;66.17;93050.73;1644057;85;21154;-60
2022/09/28 07:41:12;;;;;;;41.20;16.20;;;;;;;15.72;61.58;93050.48;1641399;85;21122;-61
2022/09/28 07:43:45;;;;;;;8.65;4.90;;;;;;;15.85;59.12;93059.55;1623966;85;21096;-61
2022/09/28 07:46:13;;;;;;;8.70;5.00;;;;;;;15.81;59.88;93066.03;1649557;85;21080;-61
2022/09/28 07:48:44;;;;;;;9.10;5.25;;;;;;;15.71;58.43;93060.73;1620991;85;21096;-58
2022/09/28 07:51:20;;;;;;;7.45;3.75;;;;;;;15.62;56.48;93068.00;1588909;85;21318;-62
2022/09/28 07:53:55;;;;;;;;;;;;;;;15.49;56.48;93073.41;1615123;85;21714;-62
2022/09/28 07:56:41;;;;;;;8.43;4.17;;;;;;;15.36;58.09;93079.58;1644149;85;20290;-62
2022/09/28 07:59:10;;;;;;;7.67;3.27;;;;;;;15.25;58.21;93093.52;1595907;87;21071;-59
2022/09/28 08:01:41;;;;;;;8.33;4.60;;;;;;;15.22;58.84;93100.06;1645500;85;21116;-60
2022/09/28 08:04:11;;;;;;;7.45;3.65;;;;;;;15.18;58.98;93089.91;1615830;87;21935;-60
2022/09/28 08:06:41;;;;;;;6.67;3.62;;;;;;;15.17;59.29;93091.83;1639746;85;21180;-61
2022/09/28 08:09:12;;;;;;;9.30;4.83;;;;;;;15.14;58.83;93101.91;1638789;85;21230;-61
2022/09/28 08:11:58;;;;;;;13.55;7.78;;;;;;;15.11;58.85;93096.02;1637914;85;21029;-62
2022/09/28 08:14:38;;;;;;;10.65;7.05;;;;;;;15.15;58.99;93103.41;1631329;87;21556;-63
2022/09/28 08:17:11;;;;;;;9.03;6.20;;;;;;;15.16;58.22;93091.06;1638086;86;21264;-60
2022/09/28 08:22:31;;;;;;;6.42;4.25;;;;;;;15.27;57.75;93103.45;1608893;88;21117;-61
2022/09/28 08:24:57;;;;;;;9.33;4.72;;;;;;;15.39;57.71;93099.32;1650595;83;21060;-59
2022/09/28 08:27:26;;;;;;;8.18;4.25;;;;;;;15.50;57.25;93089.53;1672134;85;21052;-63
2022/09/28 08:29:55;;;;;;;11.85;4.65;;;;;;;15.64;56.57;93093.94;1651971;85;21580;-60
2022/09/28 08:32:43;;;;;;;8.15;3.85;;;;;;;15.75;55.71;93100.00;1610519;87;21008;-62
2022/09/28 08:35:21;;;;;;;7.62;2.62;;;;;;;15.75;55.07;93092.42;1570701;89;21072;-58
2022/09/28 08:37:56;;;;;;;16.75;7.08;;;;;;;15.80;55.40;93092.25;1637555;85;21087;-64
2022/09/28 08:40:30;;;;;;;10.13;4.62;;;;;;;15.86;53.69;93107.56;1643370;83;21512;-63
2022/09/28 08:43:30;;;;;;;11.73;6.33;;;;;;;15.91;52.30;93098.43;1683178;83;21368;-60
2022/09/28 08:46:02;;;;;;;54.60;28.15;;;;;;;16.02;53.52;93105.25;1636542;85;21138;-60
2022/09/28 08:48:43;;;;;;;58.17;28.27;;;;;;;16.18;53.06;93105.70;1673387;84;21129;-57
2022/09/28 08:51:54;;;;;;;9.70;5.08;;;;;;;16.37;52.60;93112.06;1660129;85;21844;-57
2022/09/28 08:54:50;;;;;;;13.90;5.20;;;;;;;16.53;51.20;93103.52;1671085;83;22264;-60
2022/09/28 08:57:28;;;;;;;;;;;;;;;16.66;51.19;93114.70;1688992;83;21240;-64
2022/09/28 08:59:57;;;;;;;3.83;2.10;;;;;;;16.77;49.10;93115.92;1648899;84;20462;-58
2022/09/28 09:02:34;;;;;;;4.70;4.17;;;;;;;16.85;49.72;93111.91;1691411;83;21683;-61
2022/09/28 09:05:17;;;;;;;3.65;2.33;;;;;;;16.96;50.38;93100.02;1664787;85;21060;-64
2022/09/28 09:08:35;;;;;;;3.42;2.10;;;;;;;17.14;48.91;93110.98;1684776;83;21047;-57
2022/09/28 09:11:23;;;;;;;1.80;1.70;;;;;;;17.25;47.25;93124.07;1653698;85;21579;-59
2022/09/28 09:14:22;;;;;;;4.25;2.42;;;;;;;17.49;46.38;93121.84;1683431;83;21112;-58
2022/09/28 09:17:07;;;;;;;1.65;1.55;;;;;;;17.60;45.97;93116.07;1682279;83;21116;-58
2022/09/28 09:19:54;;;;;;;1.80;1.50;;;;;;;17.68;46.33;93112.13;1639178;83;21040;-62
2022/09/28 09:22:40;;;;;;;1.45;1.15;;;;;;;17.83;45.67;93118.59;1663358;83;21096;-60
2022/09/28 09:25:43;;;;;;;1.65;1.55;;;;;;;17.90;42.23;93136.05;1675765;84;21258;-61
2022/09/28 09:28:47;;;;;;;3.98;1.45;;;;;;;17.86;42.89;93119.66;1645833;85;21016;-61
2022/09/28 09:31:34;;;;;;;2.90;1.55;;;;;;;17.78;42.86;93133.33;1648950;84;21366;-63
2022/09/28 09:34:46;;;;;;;3.27;1.40;;;;;;;17.77;42.17;93129.81;1673720;83;21502;-61
2022/09/28 09:38:10;;;;;;;4.65;1.42;;;;;;;17.85;43.52;93120.20;1629587;86;21423;-58
2022/09/28 09:40:59;;;;;;;2.17;1.05;;;;;;;18.21;43.26;93145.08;1619784;86;21136;-61
2022/09/28 09:43:54;;;;;;;4.92;1.45;;;;;;;18.46;40.99;93151.22;1652028;84;21025;-59
2022/09/28 09:46:40;;;;;;;2.77;1.57;;;;;;;18.62;41.44;93148.09;1676328;83;21126;-57
2022/09/28 09:49:19;;;;;;;6.17;2.20;;;;;;;18.66;41.27;93151.30;1669368;83;21093;-61
2022/09/28 09:52:01;;;;;;;2.05;1.65;;;;;;;18.87;41.98;93154.91;1652724;85;21116;-60
2022/09/28 09:54:47;;;;;;;4.60;2.62;;;;;;;19.09;41.04;93155.84;1636515;85;21295;-59
2022/09/28 09:57:34;;;;;;;4.60;3.22;;;;;;;19.08;39.83;93164.11;1593574;87;21503;-61
2022/09/28 10:00:14;;;;;;;3.90;1.52;;;;;;;19.09;38.80;93155.84;1624678;86;21050;-62
2022/09/28 10:02:42;;;;;;;4.28;1.22;;;;;;;19.39;38.59;93163.16;1649360;85;21581;-58
2022/09/28 10:05:26;;;;;;;5.30;1.87;;;;;;;19.80;37.68;93166.02;1653525;85;21581;-60
2022/09/28 10:08:03;;;;;;;5.60;1.42;;;;;;;20.26;37.74;93158.13;1616954;86;21136;-60
2022/09/28 10:10:37;;;;;;;5.08;1.47;;;;;;;20.62;38.21;93165.92;1632965;86;21054;-61
2022/09/28 10:13:10;;;;;;;4.55;1.45;;;;;;;20.99;36.12;93171.75;1641660;86;21066;-63
2022/09/28 10:15:38;;;;;;;3.77;2.22;;;;;;;21.25;35.78;93191.06;1635196;85;21118;-65
2022/09/28 10:18:15;;;;;;;4.10;2.17;;;;;;;21.38;35.39;93195.14;1660954;83;21485;-63
2022/09/28 10:21:01;;;;;;;0.78;0.72;;;;;;;21.72;35.43;93188.65;1705709;83;21206;-62
2022/09/28 10:23:36;;;;;;;6.72;1.47;;;;;;;21.94;33.57;93188.58;1677789;83;21058;-61
2022/09/28 10:26:10;;;;;;;5.37;2.10;;;;;;;22.11;34.59;93186.75;1703218;82;21065;-59
2022/09/28 10:28:48;;;;;;;6.65;1.50;;;;;;;22.35;33.73;93184.15;1654855;84;21107;-60
2022/09/28 10:31:51;;;;;;;2.05;0.80;;;;;;;22.56;33.14;93184.72;1646536;85;21083;-59
2022/09/28 10:34:30;;;;;;;1.37;1.27;;;;;;;22.73;32.89;93176.48;1679049;83;22189;-62
2022/09/28 10:37:05;;;;;;;5.85;0.90;;;;;;;22.87;33.36;93179.81;1656930;83;21092;-60
2022/09/28 10:39:54;;;;;;;8.78;1.00;;;;;;;22.92;33.54;93172.61;1695655;83;21111;-61
2022/09/28 10:42:26;;;;;;;11.38;1.15;;;;;;;22.97;32.31;93189.13;1666551;83;21059;-61
2022/09/28 10:45:01;;;;;;;3.45;1.00;;;;;;;22.91;33.04;93173.92;1706963;83;21068;-61
2022/09/28 10:47:37;;;;;;;6.55;1.82;;;;;;;22.79;32.80;93178.42;1649710;85;21127;-60
2022/09/28 10:50:23;;;;;;;2.77;0.85;;;;;;;22.73;33.05;93170.11;1668573;83;21023;-61
2022/09/28 10:52:52;;;;;;;3.87;2.15;;;;;;;23.00;32.70;93161.37;1676979;85;21503;-63
2022/09/28 10:55:35;;;;;;;5.97;1.50;;;;;;;23.33;32.03;93170.72;1688620;83;21404;-62
2022/09/28 10:58:26;;;;;;;3.80;1.10;;;;;;;23.54;32.03;93162.03;1705492;83;21101;-65
2022/09/28 11:01:04;;;;;;;4.17;1.00;;;;;;;23.71;31.79;93151.63;1664846;83;21941;-61
2022/09/28 11:03:32;;;;;;;2.70;1.07;;;;;;;23.74;31.30;93154.69;1672730;83;21076;-59
2022/09/28 11:06:06;;;;;;;1.42;0.98;;;;;;;23.84;31.08;93156.25;1674006;85;21115;-58
2022/09/28 11:08:40;;;;;;;2.37;1.10;;;;;;;24.07;31.83;93162.58;1665976;83;21043;-57
2022/09/28 11:11:15;;;;;;;;;;;;;;;24.48;31.59;93148.47;1649792;86;22207;-58
2022/09/28 11:13:52;;;;;;;16.10;6.75;;;;;;;24.83;29.63;93155.67;1588922;87;22068;-58
2022/09/28 11:16:30;;;;;;;7.28;3.83;;;;;;;24.84;29.70;93152.94;1596742;88;21085;-57
2022/09/28 11:19:03;;;;;;;5.90;1.85;;;;;;;24.99;29.19;93161.98;1611283;86;21068;-60
2022/09/28 11:21:45;;;;;;;9.48;1.45;;;;;;;24.96;29.15;93168.02;1600383;88;21363;-58
2022/09/28 11:24:22;;;;;;;1.47;1.37;;;;;;;24.91;28.44;93172.56;1613300;85;21149;-60
2022/09/28 11:26:58;;;;;;;7.53;2.52;;;;;;;24.93;28.89;93174.81;1676004;83;21965;-59
2022/09/28 11:29:41;;;;;;;5.00;2.72;;;;;;;25.02;29.08;93174.14;1637490;85;21083;-62
2022/09/28 11:32:20;;;;;;;1.75;0.82;;;;;;;25.13;28.54;93177.20;1631025;86;21076;-58
2022/09/28 11:34:51;;;;;;;0.90;0.68;;;;;;;25.22;28.29;93175.83;1616352;87;21032;-57
2022/09/28 11:37:53;;;;;;;0.95;0.80;;;;;;;25.45;27.61;93172.11;1617314;85;21515;-58
2022/09/28 11:40:35;;;;;;;6.60;1.55;;;;;;;25.73;27.18;93173.72;1675065;83;21312;-56
2022/09/28 11:43:13;;;;;;;1.67;1.57;;;;;;;25.70;27.51;93171.31;1649063;85;21108;-62
2022/09/28 11:46:16;;;;;;;3.85;0.90;;;;;;;25.66;27.59;93172.41;1668899;83;21123;-64
2022/09/28 11:48:52;;;;;;;27.30;21.25;;;;;;;25.96;26.70;93174.18;1675058;85;21116;-59
2022/09/28 11:51:33;;;;;;;4.28;2.50;;;;;;;26.07;26.73;93176.45;1694201;82;21063;-56
2022/09/28 11:54:27;;;;;;;2.27;0.75;;;;;;;26.11;26.55;93190.20;1667756;83;21337;-57
2022/09/28 11:56:56;;;;;;;4.47;0.88;;;;;;;26.19;25.63;93183.80;1668444;84;21035;-59
2022/09/28 11:59:52;;;;;;;1.72;0.90;;;;;;;25.90;25.68;93183.58;1678314;85;21196;-58
2022/09/28 12:02:33;;;;;;;0.80;0.80;;;;;;;25.79;26.65;93188.93;1666664;83;21119;-58
2022/09/28 12:05:25;;;;;;;5.85;0.80;;;;;;;25.94;25.71;93202.20;1678403;83;22162;-61
2022/09/28 12:08:10;;;;;;;0.95;0.60;;;;;;;25.99;25.57;93189.91;1660509;84;21289;-56
2022/09/28 12:10:54;;;;;;;3.42;0.88;;;;;;;26.14;26.05;93196.76;1669254;83;21439;-58